createdAt,value
2019-03-06T00:00:11.545Z,15.00
2019-03-06T00:02:57.712Z,14.15
2019-03-06T00:05:42.319Z,17.17
2019-03-06T00:11:30.292Z,14.93
2019-03-06T00:14:14.168Z,17.30
2019-03-06T00:16:59.997Z,18.00
2019-03-06T00:19:32.553Z,15.93
2019-03-06T00:25:05.090Z,15.83
2019-03-06T00:27:50.398Z,16.40
2019-03-06T00:30:35.664Z,15.53
2019-03-06T00:33:19.575Z,16.42
2019-03-06T00:36:05.296Z,15.03
2019-03-06T00:38:49.973Z,15.18
2019-03-06T00:41:39.928Z,16.13
2019-03-06T00:44:24.248Z,17.43
2019-03-06T00:47:09.711Z,18.87
2019-03-06T00:49:54.507Z,18.27
2019-03-06T00:52:41.150Z,16.27
2019-03-06T00:55:26.682Z,15.60
2019-03-06T01:00:46.530Z,15.08
2019-03-06T01:03:31.935Z,15.40
2019-03-06T01:06:17.266Z,16.37
2019-03-06T01:08:49.991Z,13.23
2019-03-06T01:11:35.022Z,13.18
2019-03-06T01:14:07.294Z,16.17
2019-03-06T01:16:52.427Z,15.20
2019-03-06T01:19:37.296Z,12.87
2019-03-06T01:24:52.694Z,16.07
2019-03-06T01:27:25.171Z,17.10
2019-03-06T01:30:10.750Z,14.30
2019-03-06T01:32:43.151Z,14.17
2019-03-06T01:35:46.593Z,16.37
2019-03-06T01:38:51.780Z,14.87
2019-03-06T01:44:32.027Z,15.98
2019-03-06T01:47:29.795Z,15.80
2019-03-06T01:53:02.421Z,16.00
2019-03-06T01:55:47.213Z,15.80
2019-03-06T01:58:32.141Z,17.00
2019-03-06T02:01:16.893Z,17.87
2019-03-06T02:04:02.285Z,16.83
2019-03-06T02:09:52.576Z,15.33
2019-03-06T02:12:37.782Z,18.77
2019-03-06T02:15:21.555Z,17.97
2019-03-06T02:18:06.317Z,19.87
2019-03-06T02:20:50.983Z,19.73
2019-03-06T02:23:35.604Z,20.27
2019-03-06T02:26:21.729Z,21.23
2019-03-06T02:29:07.009Z,18.57
2019-03-06T02:31:52.158Z,21.20
2019-03-06T02:34:25.045Z,22.77
2019-03-06T02:37:10.240Z,20.07
2019-03-06T02:39:56.402Z,20.63
2019-03-06T02:42:42.213Z,22.20
2019-03-06T02:45:27.633Z,19.97
2019-03-06T02:48:12.525Z,21.27
2019-03-06T02:50:56.882Z,20.83
2019-03-06T02:53:41.824Z,24.93
2019-03-06T02:56:27.304Z,22.53
2019-03-06T03:05:33.547Z,22.50
2019-03-06T03:08:19.253Z,24.17
2019-03-06T03:11:04.446Z,24.20
2019-03-06T03:16:37.207Z,25.50
2019-03-06T03:19:22.600Z,24.40
2019-03-06T03:22:07.506Z,24.60
2019-03-06T03:24:51.595Z,23.67
2019-03-06T03:27:36.935Z,24.10
2019-03-06T03:33:08.767Z,25.67
2019-03-06T03:35:53.709Z,25.57
2019-03-06T03:41:07.669Z,27.73
2019-03-06T03:46:40.053Z,26.15
2019-03-06T03:49:24.704Z,29.10
2019-03-06T03:52:09.730Z,27.00
2019-03-06T03:54:54.475Z,25.57
2019-03-06T03:57:39.612Z,28.70
2019-03-06T04:00:23.509Z,29.30
2019-03-06T04:03:10.009Z,24.85
2019-03-06T04:05:54.566Z,26.13
2019-03-06T04:08:38.885Z,29.37
2019-03-06T04:11:11.279Z,27.65
2019-03-06T04:13:43.670Z,29.03
2019-03-06T04:16:29.284Z,28.80
2019-03-06T04:19:13.344Z,27.67
2019-03-06T04:21:59.356Z,32.23
2019-03-06T04:24:43.240Z,26.65
2019-03-06T04:27:28.465Z,31.67
2019-03-06T04:30:00.834Z,26.93
2019-03-06T04:32:45.974Z,31.12
2019-03-06T04:35:30.394Z,29.87
2019-03-06T04:38:15.325Z,29.87
2019-03-06T04:41:00.616Z,33.17
2019-03-06T04:43:45.328Z,28.03
2019-03-06T04:46:29.335Z,28.43
2019-03-06T04:49:13.808Z,27.50
2019-03-06T04:51:58.115Z,27.37
2019-03-06T04:54:42.072Z,27.40
2019-03-06T04:57:26.793Z,25.63
2019-03-06T05:00:12.931Z,30.33
2019-03-06T05:02:57.502Z,24.53
2019-03-06T05:05:42.375Z,23.03
2019-03-06T05:08:28.031Z,26.27
2019-03-06T05:11:12.127Z,27.47
2019-03-06T05:13:55.665Z,26.97
2019-03-06T05:17:00.136Z,29.00
2019-03-06T05:19:46.435Z,26.00
2019-03-06T05:22:31.607Z,24.33
2019-03-06T05:25:16.901Z,27.87
2019-03-06T05:31:09.177Z,23.92
2019-03-06T05:33:54.955Z,24.50
2019-03-06T05:39:25.745Z,25.53
2019-03-06T05:42:10.675Z,23.47
2019-03-06T05:44:55.709Z,24.87
2019-03-06T05:47:40.545Z,26.27
2019-03-06T05:50:25.362Z,26.30
2019-03-06T05:53:10.775Z,27.47
2019-03-06T05:55:56.299Z,27.73
2019-03-06T05:58:41.901Z,26.02
2019-03-06T06:01:26.302Z,22.73
2019-03-06T06:04:10.088Z,24.70
2019-03-06T06:06:54.995Z,22.67
2019-03-06T06:09:41.026Z,23.80
2019-03-06T06:12:13.768Z,22.02
2019-03-06T06:14:58.674Z,22.50
2019-03-06T06:17:43.059Z,22.37
2019-03-06T06:20:15.328Z,21.47
2019-03-06T06:26:07.296Z,23.57
2019-03-06T06:28:53.488Z,22.55
2019-03-06T06:31:38.315Z,19.70
2019-03-06T06:34:10.633Z,22.10
2019-03-06T06:36:56.010Z,20.32
2019-03-06T06:39:29.433Z,21.35
2019-03-06T06:42:14.357Z,20.65
2019-03-06T06:45:01.030Z,19.37
2019-03-06T06:48:11.133Z,20.37
2019-03-06T06:51:01.970Z,19.62
2019-03-06T06:54:00.678Z,23.00
2019-03-06T06:57:04.788Z,18.70
2019-03-06T07:00:09.244Z,21.43
2019-03-06T07:06:41.601Z,17.35
2019-03-06T07:09:33.000Z,16.77
2019-03-06T07:12:24.029Z,19.13
2019-03-06T07:15:28.494Z,19.12
2019-03-06T07:18:24.223Z,19.12
2019-03-06T07:21:15.624Z,21.53
2019-03-06T07:24:20.114Z,21.87
2019-03-06T07:27:28.710Z,16.33
2019-03-06T07:36:54.171Z,21.93
2019-03-06T07:39:57.712Z,15.97
2019-03-06T07:43:02.919Z,22.15
2019-03-06T07:46:07.154Z,25.37
2019-03-06T07:49:11.659Z,18.13
2019-03-06T07:52:15.620Z,20.00
2019-03-06T07:55:19.817Z,20.23
2019-03-06T07:58:24.035Z,18.30
2019-03-06T08:01:16.846Z,17.77
2019-03-06T08:10:12.190Z,18.80
2019-03-06T08:16:19.255Z,18.60
2019-03-06T08:19:09.984Z,16.80
2019-03-06T08:25:31.918Z,18.30
2019-03-06T08:28:21.671Z,22.17
2019-03-06T08:31:31.333Z,21.53
2019-03-06T08:34:15.979Z,20.97
2019-03-06T08:37:00.981Z,19.83
2019-03-06T08:39:34.254Z,21.93
2019-03-06T08:42:19.670Z,28.23
2019-03-06T08:45:05.059Z,28.73
2019-03-06T08:54:23.691Z,19.23
2019-03-06T09:00:45.356Z,20.90
2019-03-06T09:10:38.802Z,21.70
2019-03-06T09:19:51.808Z,20.13
2019-03-06T09:22:55.970Z,21.27
2019-03-06T09:33:12.315Z,19.50
2019-03-06T09:43:24.978Z,23.10
2019-03-06T10:05:53.034Z,21.20
2019-03-06T10:21:54.538Z,22.40
2019-03-06T10:37:37.500Z,23.27
2019-03-06T10:40:27.186Z,22.67
2019-03-06T10:46:33.078Z,22.23
2019-03-06T10:49:05.521Z,20.63
2019-03-06T11:01:39.614Z,21.00
2019-03-06T11:04:48.855Z,19.77
2019-03-06T11:07:34.852Z,21.30
2019-03-06T11:10:24.128Z,20.77
2019-03-06T11:26:27.469Z,21.00
2019-03-06T11:32:36.103Z,22.63
2019-03-06T11:35:26.646Z,22.30
2019-03-06T11:44:35.238Z,20.97
2019-03-06T11:53:52.347Z,18.77
2019-03-06T11:56:39.694Z,20.15
2019-03-06T11:59:30.529Z,18.65
2019-03-06T12:18:49.105Z,19.67
2019-03-06T12:25:02.729Z,19.17
2019-03-06T12:27:53.145Z,17.77
2019-03-06T12:33:43.251Z,15.63
2019-03-06T12:36:31.394Z,16.40
2019-03-06T12:45:28.821Z,14.80
2019-03-06T13:03:40.038Z,11.30
2019-03-06T13:06:25.643Z,14.97
2019-03-06T13:09:14.570Z,14.67
2019-03-06T13:12:02.395Z,11.40
2019-03-06T13:14:47.056Z,10.83
2019-03-06T13:17:32.403Z,15.97
2019-03-06T13:20:16.682Z,13.57
2019-03-06T13:23:01.537Z,9.83
2019-03-06T13:25:46.700Z,12.15
2019-03-06T13:28:32.103Z,12.13
2019-03-06T13:31:15.764Z,9.73
2019-03-06T13:37:21.472Z,12.50
2019-03-06T13:40:06.022Z,10.77
2019-03-06T13:42:51.417Z,9.70
2019-03-06T13:45:36.437Z,10.87
2019-03-06T13:48:08.703Z,11.90
2019-03-06T13:50:53.640Z,14.23
2019-03-06T13:53:37.451Z,12.53
2019-03-06T13:56:10.061Z,9.27
2019-03-06T13:58:54.872Z,9.93
2019-03-06T14:01:40.817Z,9.13
2019-03-06T14:04:25.800Z,10.25
2019-03-06T14:07:11.680Z,9.10
2019-03-06T14:09:56.497Z,8.53
2019-03-06T14:12:41.797Z,8.57
2019-03-06T14:15:27.693Z,11.40
2019-03-06T14:18:13.222Z,10.07
2019-03-06T14:20:59.038Z,10.87
2019-03-06T14:23:44.680Z,10.67
2019-03-06T14:26:28.428Z,9.77
2019-03-06T14:29:14.158Z,11.70
2019-03-06T14:31:58.166Z,11.17
2019-03-06T14:34:43.140Z,11.07
2019-03-06T14:37:26.966Z,9.23
2019-03-06T14:40:13.802Z,17.57
2019-03-06T14:42:59.934Z,9.73
2019-03-06T14:45:45.133Z,10.40
2019-03-06T14:48:30.114Z,11.47
2019-03-06T14:51:14.923Z,9.70
2019-03-06T14:53:58.711Z,11.55
2019-03-06T14:56:43.930Z,14.87
2019-03-06T14:59:28.791Z,11.20
2019-03-06T15:02:12.962Z,9.93
2019-03-06T15:04:57.653Z,9.12
2019-03-06T15:07:41.754Z,11.03
2019-03-06T15:13:16.755Z,11.10
2019-03-06T15:16:02.281Z,10.70
2019-03-06T15:21:38.227Z,10.50
2019-03-06T15:24:23.779Z,9.93
2019-03-06T15:27:08.307Z,11.10
2019-03-06T15:29:52.278Z,9.03
2019-03-06T15:32:37.442Z,8.70
2019-03-06T15:38:26.633Z,8.83
2019-03-06T15:41:11.964Z,10.33
2019-03-06T15:43:55.777Z,9.95
2019-03-06T15:49:44.405Z,8.50
2019-03-06T15:52:28.341Z,11.47
2019-03-06T15:55:12.545Z,11.43
2019-03-06T15:57:44.754Z,7.95
2019-03-06T16:03:31.791Z,11.37
2019-03-06T16:06:20.438Z,14.78
2019-03-06T16:09:04.941Z,10.80
2019-03-06T16:11:51.565Z,11.40
2019-03-06T16:14:36.022Z,10.70
2019-03-06T16:17:21.294Z,9.43
2019-03-06T16:20:08.058Z,10.93
2019-03-06T16:22:52.286Z,11.30
2019-03-06T16:25:39.862Z,9.20
2019-03-06T16:28:22.774Z,9.82
2019-03-06T16:31:07.318Z,16.20
2019-03-06T16:33:52.176Z,10.87
2019-03-06T16:36:36.718Z,11.90
2019-03-06T16:39:20.516Z,13.03
2019-03-06T16:42:05.212Z,15.65
2019-03-06T16:44:50.960Z,13.27
2019-03-06T16:47:35.162Z,10.03
2019-03-06T16:50:19.533Z,9.83
2019-03-06T16:53:04.437Z,11.40
2019-03-06T16:55:49.950Z,12.60
2019-03-06T16:58:35.222Z,11.93
2019-03-06T17:01:19.208Z,15.03
2019-03-06T17:04:05.776Z,15.43
2019-03-06T17:06:49.831Z,12.33
2019-03-06T17:09:34.518Z,12.73
2019-03-06T17:12:19.010Z,16.35
2019-03-06T17:15:03.650Z,16.33
2019-03-06T17:17:49.155Z,15.23
2019-03-06T17:20:33.401Z,13.47
2019-03-06T17:23:17.446Z,11.38
2019-03-06T17:26:02.545Z,15.07
2019-03-06T17:28:47.006Z,15.77
2019-03-06T17:31:31.405Z,12.37
2019-03-06T17:34:15.454Z,10.23
2019-03-06T17:37:01.397Z,15.30
2019-03-06T17:39:46.444Z,11.70
2019-03-06T17:42:31.872Z,10.32
2019-03-06T17:45:16.323Z,12.37
2019-03-06T17:48:00.185Z,8.53
2019-03-06T17:50:44.034Z,11.33
2019-03-06T17:53:29.045Z,9.03
2019-03-06T17:56:12.754Z,9.37
2019-03-06T17:58:57.437Z,9.50
2019-03-06T18:01:42.734Z,7.40
2019-03-06T18:04:27.731Z,10.20
2019-03-06T18:07:12.886Z,12.77
2019-03-06T18:09:57.993Z,8.73
2019-03-06T18:12:42.999Z,11.67
2019-03-06T18:17:57.852Z,15.20
2019-03-06T18:23:28.847Z,9.93
2019-03-06T18:26:13.969Z,10.30
2019-03-06T18:28:58.886Z,9.10
2019-03-06T18:31:43.080Z,8.48
2019-03-06T18:34:28.468Z,12.37
2019-03-06T18:37:13.711Z,10.83
2019-03-06T18:40:04.142Z,11.60
2019-03-06T18:42:49.101Z,10.25
2019-03-06T18:45:34.376Z,10.57
2019-03-06T18:48:06.676Z,11.70
2019-03-06T18:50:51.207Z,13.53
2019-03-06T18:53:36.537Z,10.53
2019-03-06T18:56:21.233Z,10.73
2019-03-06T18:59:07.145Z,11.90
2019-03-06T19:01:52.114Z,9.47
2019-03-06T19:04:36.097Z,8.20
2019-03-06T19:07:21.040Z,10.60
2019-03-06T19:10:05.665Z,12.70
2019-03-06T19:12:51.420Z,9.73
2019-03-06T19:15:36.741Z,7.25
2019-03-06T19:18:21.672Z,10.63
2019-03-06T19:21:06.334Z,10.50
2019-03-06T19:23:50.965Z,14.00
2019-03-06T19:26:35.716Z,8.84
2019-03-06T19:29:20.240Z,7.67
2019-03-06T19:35:10.305Z,9.63
2019-03-06T19:37:54.631Z,10.95
2019-03-06T19:40:41.128Z,10.33
2019-03-06T19:43:26.081Z,8.95
2019-03-06T19:46:12.398Z,8.15
2019-03-06T19:48:56.778Z,12.00
2019-03-06T19:51:41.600Z,10.38
2019-03-06T19:54:27.085Z,12.13
2019-03-06T19:59:58.652Z,12.27
2019-03-06T20:02:44.083Z,9.10
2019-03-06T20:05:30.008Z,9.63
2019-03-06T20:08:15.629Z,9.78
2019-03-06T20:11:00.735Z,7.60
2019-03-06T20:13:45.288Z,8.27
2019-03-06T20:16:17.967Z,8.08
2019-03-06T20:19:18.244Z,5.97
2019-03-06T20:22:03.881Z,8.03
2019-03-06T20:24:49.770Z,7.67
2019-03-06T20:27:22.884Z,6.33
2019-03-06T20:30:07.728Z,9.63
2019-03-06T20:32:53.506Z,7.72
2019-03-06T20:35:37.478Z,7.73
2019-03-06T20:38:23.523Z,9.10
2019-03-06T20:41:09.993Z,10.90
2019-03-06T20:43:55.209Z,10.17
2019-03-06T20:46:40.413Z,13.67
2019-03-06T20:49:25.968Z,14.05
2019-03-06T20:52:11.374Z,10.87
2019-03-06T20:54:55.459Z,10.37
2019-03-06T20:57:39.287Z,10.63
2019-03-06T21:00:18.281Z,10.23
2019-03-06T21:03:03.626Z,8.13
2019-03-06T21:05:36.723Z,9.00
2019-03-06T21:08:22.559Z,10.27
2019-03-06T21:11:08.103Z,12.50
2019-03-06T21:13:51.713Z,11.27
2019-03-06T21:16:35.472Z,11.73
2019-03-06T21:19:20.669Z,12.03
2019-03-06T21:22:05.652Z,11.53
2019-03-06T21:24:51.157Z,9.97
2019-03-06T21:27:35.680Z,10.80
2019-03-06T21:33:34.577Z,9.63
2019-03-06T21:36:19.331Z,9.87
2019-03-06T21:41:51.777Z,16.15
2019-03-06T21:44:35.933Z,10.30
2019-03-06T21:47:21.190Z,9.13
2019-03-06T21:50:07.566Z,9.38
2019-03-06T21:52:52.691Z,9.60
2019-03-06T21:55:37.639Z,7.63
2019-03-06T21:58:21.734Z,8.90
2019-03-06T22:01:07.113Z,9.80
2019-03-06T22:03:51.402Z,11.00
2019-03-06T22:06:39.389Z,10.23
2019-03-06T22:12:29.448Z,9.03
2019-03-06T22:15:13.686Z,8.90
2019-03-06T22:17:46.299Z,10.17
2019-03-06T22:20:31.800Z,7.17
2019-03-06T22:23:19.239Z,7.10
2019-03-06T22:26:03.334Z,6.73
2019-03-06T22:28:49.878Z,14.23
2019-03-06T22:31:35.097Z,10.93
2019-03-06T22:34:22.029Z,9.18
2019-03-06T22:37:08.505Z,6.28
2019-03-06T22:39:55.432Z,6.63
2019-03-06T22:42:40.462Z,6.87
2019-03-06T22:45:25.575Z,8.87
2019-03-06T22:48:11.410Z,5.13
2019-03-06T22:50:56.721Z,6.23
2019-03-06T22:53:42.789Z,4.78
2019-03-06T22:56:27.978Z,7.63
2019-03-06T22:59:12.926Z,5.23
2019-03-06T23:02:24.936Z,6.70
2019-03-06T23:05:10.827Z,6.58
2019-03-06T23:10:46.250Z,8.40
2019-03-06T23:13:32.190Z,6.43
2019-03-06T23:16:17.098Z,5.73
2019-03-06T23:19:01.923Z,6.27
2019-03-06T23:21:47.977Z,6.00
2019-03-06T23:27:08.300Z,5.13
2019-03-06T23:29:53.698Z,5.90
2019-03-06T23:32:38.606Z,4.77
2019-03-06T23:35:22.827Z,6.23
2019-03-06T23:38:08.070Z,5.23
2019-03-06T23:40:41.481Z,5.37
2019-03-06T23:46:19.681Z,6.20
2019-03-06T23:49:04.070Z,4.80
2019-03-06T23:51:52.550Z,4.63
2019-03-06T23:54:37.213Z,4.97
2019-03-06T23:57:22.206Z,5.47
